Terminal Aerodrome Forecast
Issued by NWS

Home | Current Version | Previous Version | Text Only | Print | Product List | Glossary On
Versions: 1 2 3 4 5 6 7 8 9 10 11 12 13 14 15 16 17 18 19 20 21 22 23 24 25 26 27 28 29 30 31 32 33 34 35 36 37 38 39 40 41 42 43 44
000
FTUS45 KSLC 281121
TAFLGU
TAF
KLGU 281121Z 2812/2912 VRB04KT P6SM VCSH SCT025 BKN040
     FM281400 20006KT 3/4SM -SN BR SCT004 OVC008
     FM281900 VRB05KT 2SM -SN BR SCT008 BKN020
     FM290600 VRB04KT P6SM VCSH SCT020 BKN040=

USA.gov is the U.S. government's official web portal to all federal, state and local government web resources and services.